sensor_id;sensor_type;location;lat;lon;timestamp;P1;durP1;ratioP1;P2;durP2;ratioP2
70228;SDS011;57617;51.988;5.854;2022-11-15T00:01:25;69.32;;;21.88;;
70228;SDS011;57617;51.988;5.854;2022-11-15T00:03:50;80.93;;;22.35;;
70228;SDS011;57617;51.988;5.854;2022-11-15T00:06:16;83.40;;;23.23;;
70228;SDS011;57617;51.988;5.854;2022-11-15T00:08:42;91.50;;;23.73;;
70228;SDS011;57617;51.988;5.854;2022-11-15T00:11:08;75.45;;;22.70;;
70228;SDS011;57617;51.988;5.854;2022-11-15T00:13:35;88.65;;;23.70;;
70228;SDS011;57617;51.988;5.854;2022-11-15T00:16:01;79.88;;;23.67;;
70228;SDS011;57617;51.988;5.854;2022-11-15T00:18:27;76.60;;;23.38;;
70228;SDS011;57617;51.988;5.854;2022-11-15T00:20:53;78.57;;;23.75;;
70228;SDS011;57617;51.988;5.854;2022-11-15T00:23:18;81.95;;;22.90;;
70228;SDS011;57617;51.988;5.854;2022-11-15T00:25:43;87.40;;;23.67;;
70228;SDS011;57617;51.988;5.854;2022-11-15T00:28:09;77.88;;;23.15;;
70228;SDS011;57617;51.988;5.854;2022-11-15T00:30:34;93.00;;;25.05;;
70228;SDS011;57617;51.988;5.854;2022-11-15T00:33:03;83.25;;;24.13;;
70228;SDS011;57617;51.988;5.854;2022-11-15T00:35:30;80.78;;;23.00;;
70228;SDS011;57617;51.988;5.854;2022-11-15T00:37:57;91.20;;;24.40;;
70228;SDS011;57617;51.988;5.854;2022-11-15T00:40:22;88.88;;;24.90;;
70228;SDS011;57617;51.988;5.854;2022-11-15T00:42:47;82.70;;;23.88;;
70228;SDS011;57617;51.988;5.854;2022-11-15T00:45:12;79.22;;;23.88;;
70228;SDS011;57617;51.988;5.854;2022-11-15T00:47:38;80.75;;;23.52;;
70228;SDS011;57617;51.988;5.854;2022-11-15T00:50:03;84.75;;;24.23;;
70228;SDS011;57617;51.988;5.854;2022-11-15T00:52:29;77.53;;;24.50;;
70228;SDS011;57617;51.988;5.854;2022-11-15T00:54:54;91.72;;;24.80;;
70228;SDS011;57617;51.988;5.854;2022-11-15T00:57:19;93.90;;;24.92;;
70228;SDS011;57617;51.988;5.854;2022-11-15T00:59:45;82.57;;;24.63;;
70228;SDS011;57617;51.988;5.854;2022-11-15T01:02:10;77.05;;;25.30;;
70228;SDS011;57617;51.988;5.854;2022-11-15T01:04:35;72.05;;;23.63;;
70228;SDS011;57617;51.988;5.854;2022-11-15T01:07:00;78.20;;;23.58;;
70228;SDS011;57617;51.988;5.854;2022-11-15T01:09:26;73.35;;;23.70;;
70228;SDS011;57617;51.988;5.854;2022-11-15T01:11:51;75.70;;;25.25;;
70228;SDS011;57617;51.988;5.854;2022-11-15T01:14:17;70.25;;;24.55;;
70228;SDS011;57617;51.988;5.854;2022-11-15T01:16:42;80.22;;;25.00;;
70228;SDS011;57617;51.988;5.854;2022-11-15T01:19:08;78.85;;;25.27;;
70228;SDS011;57617;51.988;5.854;2022-11-15T01:21:33;72.88;;;24.73;;
70228;SDS011;57617;51.988;5.854;2022-11-15T01:23:58;60.92;;;24.13;;
70228;SDS011;57617;51.988;5.854;2022-11-15T01:26:23;74.40;;;24.92;;
70228;SDS011;57617;51.988;5.854;2022-11-15T01:28:49;74.90;;;25.17;;
70228;SDS011;57617;51.988;5.854;2022-11-15T01:31:16;66.60;;;24.40;;
70228;SDS011;57617;51.988;5.854;2022-11-15T01:33:43;80.40;;;25.23;;
70228;SDS011;57617;51.988;5.854;2022-11-15T01:36:10;70.10;;;24.63;;
70228;SDS011;57617;51.988;5.854;2022-11-15T01:38:41;67.63;;;24.08;;
70228;SDS011;57617;51.988;5.854;2022-11-15T01:41:06;71.88;;;25.42;;
70228;SDS011;57617;51.988;5.854;2022-11-15T01:43:39;63.42;;;25.40;;
70228;SDS011;57617;51.988;5.854;2022-11-15T01:49:02;67.13;;;24.55;;
70228;SDS011;57617;51.988;5.854;2022-11-15T01:51:39;70.15;;;25.10;;
70228;SDS011;57617;51.988;5.854;2022-11-15T01:54:05;73.60;;;25.67;;
70228;SDS011;57617;51.988;5.854;2022-11-15T01:56:36;70.55;;;26.17;;
70228;SDS011;57617;51.988;5.854;2022-11-15T01:59:10;70.18;;;25.42;;
70228;SDS011;57617;51.988;5.854;2022-11-15T02:01:36;70.40;;;25.67;;
70228;SDS011;57617;51.988;5.854;2022-11-15T02:04:07;76.93;;;25.17;;
70228;SDS011;57617;51.988;5.854;2022-11-15T02:06:37;58.22;;;23.77;;
70228;SDS011;57617;51.988;5.854;2022-11-15T02:09:04;72.28;;;25.73;;
70228;SDS011;57617;51.988;5.854;2022-11-15T02:11:29;71.93;;;25.67;;
70228;SDS011;57617;51.988;5.854;2022-11-15T02:13:55;79.18;;;25.13;;
70228;SDS011;57617;51.988;5.854;2022-11-15T02:19:21;66.15;;;25.80;;
70228;SDS011;57617;51.988;5.854;2022-11-15T02:24:37;65.63;;;24.05;;
70228;SDS011;57617;51.988;5.854;2022-11-15T02:36:00;70.25;;;25.27;;
70228;SDS011;57617;51.988;5.854;2022-11-15T02:41:39;64.20;;;24.83;;
70228;SDS011;57617;51.988;5.854;2022-11-15T02:44:17;77.53;;;25.45;;
70228;SDS011;57617;51.988;5.854;2022-11-15T02:46:52;62.70;;;24.23;;
70228;SDS011;57617;51.988;5.854;2022-11-15T02:49:46;57.63;;;24.48;;
70228;SDS011;57617;51.988;5.854;2022-11-15T02:52:14;65.38;;;23.42;;
70228;SDS011;57617;51.988;5.854;2022-11-15T02:54:57;63.25;;;24.73;;
70228;SDS011;57617;51.988;5.854;2022-11-15T02:57:29;61.42;;;23.90;;
70228;SDS011;57617;51.988;5.854;2022-11-15T03:00:03;69.88;;;24.73;;
70228;SDS011;57617;51.988;5.854;2022-11-15T03:05:44;68.00;;;25.38;;
70228;SDS011;57617;51.988;5.854;2022-11-15T03:11:14;65.95;;;24.40;;
70228;SDS011;57617;51.988;5.854;2022-11-15T03:14:02;63.00;;;24.63;;
70228;SDS011;57617;51.988;5.854;2022-11-15T03:16:42;60.28;;;24.35;;
70228;SDS011;57617;51.988;5.854;2022-11-15T03:20:10;65.38;;;24.77;;
70228;SDS011;57617;51.988;5.854;2022-11-15T03:22:08;62.85;;;23.88;;
70228;SDS011;57617;51.988;5.854;2022-11-15T03:24:37;65.75;;;25.02;;
70228;SDS011;57617;51.988;5.854;2022-11-15T03:27:03;69.05;;;25.65;;
70228;SDS011;57617;51.988;5.854;2022-11-15T03:29:32;63.10;;;23.95;;
70228;SDS011;57617;51.988;5.854;2022-11-15T03:32:03;74.07;;;26.42;;
70228;SDS011;57617;51.988;5.854;2022-11-15T03:34:39;66.22;;;26.02;;
70228;SDS011;57617;51.988;5.854;2022-11-15T03:37:08;64.38;;;25.75;;
70228;SDS011;57617;51.988;5.854;2022-11-15T03:39:38;70.72;;;26.33;;
70228;SDS011;57617;51.988;5.854;2022-11-15T03:42:17;67.88;;;25.80;;
70228;SDS011;57617;51.988;5.854;2022-11-15T03:44:52;69.72;;;26.13;;
70228;SDS011;57617;51.988;5.854;2022-11-15T03:47:36;64.47;;;25.40;;
70228;SDS011;57617;51.988;5.854;2022-11-15T03:50:10;66.60;;;26.20;;
70228;SDS011;57617;51.988;5.854;2022-11-15T03:52:38;68.43;;;26.10;;
70228;SDS011;57617;51.988;5.854;2022-11-15T03:55:06;77.28;;;28.10;;
70228;SDS011;57617;51.988;5.854;2022-11-15T03:57:35;68.85;;;26.55;;
70228;SDS011;57617;51.988;5.854;2022-11-15T04:00:00;66.25;;;25.75;;
70228;SDS011;57617;51.988;5.854;2022-11-15T04:02:25;75.63;;;26.63;;
70228;SDS011;57617;51.988;5.854;2022-11-15T04:04:51;70.25;;;27.50;;
70228;SDS011;57617;51.988;5.854;2022-11-15T04:07:16;70.47;;;26.88;;
70228;SDS011;57617;51.988;5.854;2022-11-15T04:09:41;69.07;;;25.60;;
70228;SDS011;57617;51.988;5.854;2022-11-15T04:12:25;79.18;;;28.17;;
70228;SDS011;57617;51.988;5.854;2022-11-15T04:15:01;78.00;;;27.60;;
70228;SDS011;57617;51.988;5.854;2022-11-15T04:17:34;70.28;;;26.67;;
70228;SDS011;57617;51.988;5.854;2022-11-15T04:20:05;71.60;;;26.20;;
70228;SDS011;57617;51.988;5.854;2022-11-15T04:22:55;74.38;;;26.23;;
70228;SDS011;57617;51.988;5.854;2022-11-15T04:25:40;83.07;;;28.00;;
70228;SDS011;57617;51.988;5.854;2022-11-15T04:28:06;72.82;;;27.02;;
70228;SDS011;57617;51.988;5.854;2022-11-15T04:30:32;77.85;;;27.95;;
70228;SDS011;57617;51.988;5.854;2022-11-15T04:32:57;71.72;;;27.10;;
70228;SDS011;57617;51.988;5.854;2022-11-15T04:35:22;69.88;;;25.98;;
70228;SDS011;57617;51.988;5.854;2022-11-15T04:37:48;87.40;;;27.88;;
70228;SDS011;57617;51.988;5.854;2022-11-15T04:40:13;75.93;;;26.45;;
70228;SDS011;57617;51.988;5.854;2022-11-15T04:42:40;68.32;;;25.73;;
70228;SDS011;57617;51.988;5.854;2022-11-15T04:45:07;63.83;;;25.40;;
70228;SDS011;57617;51.988;5.854;2022-11-15T04:47:33;76.07;;;26.65;;
70228;SDS011;57617;51.988;5.854;2022-11-15T04:49:58;73.75;;;26.77;;
70228;SDS011;57617;51.988;5.854;2022-11-15T04:52:24;70.88;;;25.98;;
70228;SDS011;57617;51.988;5.854;2022-11-15T04:54:49;75.43;;;27.02;;
70228;SDS011;57617;51.988;5.854;2022-11-15T04:57:14;75.90;;;26.10;;
70228;SDS011;57617;51.988;5.854;2022-11-15T04:59:40;91.88;;;27.20;;
70228;SDS011;57617;51.988;5.854;2022-11-15T05:02:05;75.25;;;26.75;;
70228;SDS011;57617;51.988;5.854;2022-11-15T05:04:30;75.15;;;26.98;;
70228;SDS011;57617;51.988;5.854;2022-11-15T05:06:56;72.63;;;27.02;;
70228;SDS011;57617;51.988;5.854;2022-11-15T05:09:21;77.53;;;27.40;;
70228;SDS011;57617;51.988;5.854;2022-11-15T05:11:46;75.25;;;26.35;;
70228;SDS011;57617;51.988;5.854;2022-11-15T05:14:12;76.07;;;27.08;;
70228;SDS011;57617;51.988;5.854;2022-11-15T05:16:38;77.22;;;28.67;;
70228;SDS011;57617;51.988;5.854;2022-11-15T05:19:04;71.68;;;26.27;;
70228;SDS011;57617;51.988;5.854;2022-11-15T05:21:30;77.03;;;27.92;;
70228;SDS011;57617;51.988;5.854;2022-11-15T05:23:56;76.47;;;26.83;;
70228;SDS011;57617;51.988;5.854;2022-11-15T05:26:22;73.60;;;26.45;;
70228;SDS011;57617;51.988;5.854;2022-11-15T05:28:51;79.35;;;27.42;;
70228;SDS011;57617;51.988;5.854;2022-11-15T05:31:20;78.63;;;26.27;;
70228;SDS011;57617;51.988;5.854;2022-11-15T05:33:45;82.03;;;26.65;;
70228;SDS011;57617;51.988;5.854;2022-11-15T05:38:42;79.95;;;27.08;;
70228;SDS011;57617;51.988;5.854;2022-11-15T05:41:08;83.20;;;27.63;;
70228;SDS011;57617;51.988;5.854;2022-11-15T05:43:35;83.88;;;27.15;;
70228;SDS011;57617;51.988;5.854;2022-11-15T05:46:04;84.07;;;27.70;;
70228;SDS011;57617;51.988;5.854;2022-11-15T05:48:29;82.57;;;27.27;;
70228;SDS011;57617;51.988;5.854;2022-11-15T05:50:55;76.93;;;27.38;;
70228;SDS011;57617;51.988;5.854;2022-11-15T05:53:21;78.75;;;27.40;;
70228;SDS011;57617;51.988;5.854;2022-11-15T05:55:49;87.10;;;27.27;;
70228;SDS011;57617;51.988;5.854;2022-11-15T05:58:16;77.88;;;26.90;;
70228;SDS011;57617;51.988;5.854;2022-11-15T06:00:42;82.50;;;27.70;;
70228;SDS011;57617;51.988;5.854;2022-11-15T06:03:08;89.93;;;28.13;;
70228;SDS011;57617;51.988;5.854;2022-11-15T06:05:34;96.93;;;27.65;;
70228;SDS011;57617;51.988;5.854;2022-11-15T06:07:59;83.28;;;27.23;;
70228;SDS011;57617;51.988;5.854;2022-11-15T06:10:25;95.53;;;28.00;;
70228;SDS011;57617;51.988;5.854;2022-11-15T06:13:00;93.70;;;28.38;;
70228;SDS011;57617;51.988;5.854;2022-11-15T06:15:27;80.97;;;27.45;;
70228;SDS011;57617;51.988;5.854;2022-11-15T06:17:55;76.88;;;27.67;;
70228;SDS011;57617;51.988;5.854;2022-11-15T06:20:25;84.03;;;26.33;;
70228;SDS011;57617;51.988;5.854;2022-11-15T06:22:55;84.50;;;28.50;;
70228;SDS011;57617;51.988;5.854;2022-11-15T06:25:25;79.25;;;27.25;;
70228;SDS011;57617;51.988;5.854;2022-11-15T06:27:51;80.32;;;27.77;;
70228;SDS011;57617;51.988;5.854;2022-11-15T06:30:17;86.95;;;27.40;;
70228;SDS011;57617;51.988;5.854;2022-11-15T06:32:42;75.20;;;26.80;;
70228;SDS011;57617;51.988;5.854;2022-11-15T06:35:07;77.45;;;26.52;;
70228;SDS011;57617;51.988;5.854;2022-11-15T06:37:33;80.82;;;27.35;;
70228;SDS011;57617;51.988;5.854;2022-11-15T06:39:58;74.28;;;27.08;;
70228;SDS011;57617;51.988;5.854;2022-11-15T06:42:23;78.68;;;26.42;;
70228;SDS011;57617;51.988;5.854;2022-11-15T06:44:49;75.88;;;26.67;;
70228;SDS011;57617;51.988;5.854;2022-11-15T06:47:14;80.60;;;26.85;;
70228;SDS011;57617;51.988;5.854;2022-11-15T06:49:39;74.95;;;26.55;;
70228;SDS011;57617;51.988;5.854;2022-11-15T06:52:04;78.60;;;25.88;;
70228;SDS011;57617;51.988;5.854;2022-11-15T06:54:30;78.32;;;26.40;;
70228;SDS011;57617;51.988;5.854;2022-11-15T06:56:55;73.32;;;26.08;;
70228;SDS011;57617;51.988;5.854;2022-11-15T06:59:20;73.45;;;25.98;;
70228;SDS011;57617;51.988;5.854;2022-11-15T07:01:45;74.03;;;25.25;;
70228;SDS011;57617;51.988;5.854;2022-11-15T07:04:11;76.18;;;25.75;;
70228;SDS011;57617;51.988;5.854;2022-11-15T07:06:36;78.47;;;25.55;;
70228;SDS011;57617;51.988;5.854;2022-11-15T07:09:02;74.50;;;24.92;;
70228;SDS011;57617;51.988;5.854;2022-11-15T07:11:28;69.47;;;24.65;;
70228;SDS011;57617;51.988;5.854;2022-11-15T07:13:53;71.20;;;24.92;;
70228;SDS011;57617;51.988;5.854;2022-11-15T07:16:18;74.47;;;25.70;;
70228;SDS011;57617;51.988;5.854;2022-11-15T07:18:44;73.57;;;24.98;;
70228;SDS011;57617;51.988;5.854;2022-11-15T07:21:10;72.10;;;24.30;;
70228;SDS011;57617;51.988;5.854;2022-11-15T07:23:36;65.55;;;23.50;;
70228;SDS011;57617;51.988;5.854;2022-11-15T07:26:06;78.85;;;24.85;;
70228;SDS011;57617;51.988;5.854;2022-11-15T07:28:32;74.53;;;28.23;;
70228;SDS011;57617;51.988;5.854;2022-11-15T07:30:57;64.75;;;24.77;;
70228;SDS011;57617;51.988;5.854;2022-11-15T07:33:22;74.07;;;24.42;;
70228;SDS011;57617;51.988;5.854;2022-11-15T07:35:48;80.63;;;28.60;;
70228;SDS011;57617;51.988;5.854;2022-11-15T07:38:13;65.65;;;25.02;;
70228;SDS011;57617;51.988;5.854;2022-11-15T07:40:39;64.28;;;26.67;;
70228;SDS011;57617;51.988;5.854;2022-11-15T07:43:06;63.35;;;21.75;;
70228;SDS011;57617;51.988;5.854;2022-11-15T07:45:33;59.67;;;22.50;;
70228;SDS011;57617;51.988;5.854;2022-11-15T07:47:59;65.38;;;22.90;;
70228;SDS011;57617;51.988;5.854;2022-11-15T07:50:25;60.40;;;22.98;;
70228;SDS011;57617;51.988;5.854;2022-11-15T07:52:53;60.15;;;21.52;;
70228;SDS011;57617;51.988;5.854;2022-11-15T07:55:20;59.20;;;22.30;;
70228;SDS011;57617;51.988;5.854;2022-11-15T07:57:45;54.50;;;22.05;;
70228;SDS011;57617;51.988;5.854;2022-11-15T08:00:11;55.83;;;22.83;;
70228;SDS011;57617;51.988;5.854;2022-11-15T08:02:37;61.13;;;23.48;;
70228;SDS011;57617;51.988;5.854;2022-11-15T08:05:02;61.63;;;21.70;;
70228;SDS011;57617;51.988;5.854;2022-11-15T08:07:28;59.25;;;22.45;;
70228;SDS011;57617;51.988;5.854;2022-11-15T08:09:55;72.45;;;22.75;;
70228;SDS011;57617;51.988;5.854;2022-11-15T08:12:21;71.95;;;23.20;;
70228;SDS011;57617;51.988;5.854;2022-11-15T08:14:47;59.65;;;22.25;;
70228;SDS011;57617;51.988;5.854;2022-11-15T08:17:12;62.60;;;22.33;;
70228;SDS011;57617;51.988;5.854;2022-11-15T08:19:37;69.30;;;23.38;;
70228;SDS011;57617;51.988;5.854;2022-11-15T08:22:02;69.63;;;23.92;;
70228;SDS011;57617;51.988;5.854;2022-11-15T08:24:28;63.78;;;23.13;;
70228;SDS011;57617;51.988;5.854;2022-11-15T08:26:53;61.95;;;23.00;;
70228;SDS011;57617;51.988;5.854;2022-11-15T08:29:18;57.33;;;21.17;;
70228;SDS011;57617;51.988;5.854;2022-11-15T08:31:43;62.20;;;22.30;;
70228;SDS011;57617;51.988;5.854;2022-11-15T08:34:09;60.47;;;22.23;;
70228;SDS011;57617;51.988;5.854;2022-11-15T08:36:34;54.85;;;21.10;;
70228;SDS011;57617;51.988;5.854;2022-11-15T08:38:59;57.97;;;21.48;;
70228;SDS011;57617;51.988;5.854;2022-11-15T08:41:26;64.28;;;22.33;;
70228;SDS011;57617;51.988;5.854;2022-11-15T08:43:55;58.22;;;21.42;;
70228;SDS011;57617;51.988;5.854;2022-11-15T08:46:21;58.10;;;21.58;;
70228;SDS011;57617;51.988;5.854;2022-11-15T08:48:46;59.17;;;22.00;;
70228;SDS011;57617;51.988;5.854;2022-11-15T08:51:11;59.40;;;22.08;;
70228;SDS011;57617;51.988;5.854;2022-11-15T08:53:37;56.47;;;22.17;;
70228;SDS011;57617;51.988;5.854;2022-11-15T08:56:02;59.15;;;22.52;;
70228;SDS011;57617;51.988;5.854;2022-11-15T08:58:31;58.78;;;20.92;;
70228;SDS011;57617;51.988;5.854;2022-11-15T09:00:57;55.30;;;20.50;;
70228;SDS011;57617;51.988;5.854;2022-11-15T09:03:22;59.05;;;20.70;;
70228;SDS011;57617;51.988;5.854;2022-11-15T09:05:48;51.58;;;19.90;;
70228;SDS011;57617;51.988;5.854;2022-11-15T09:08:13;54.40;;;20.23;;
70228;SDS011;57617;51.988;5.854;2022-11-15T09:10:38;46.13;;;18.73;;
70228;SDS011;57617;51.988;5.854;2022-11-15T09:13:04;50.67;;;18.77;;
70228;SDS011;57617;51.988;5.854;2022-11-15T09:15:29;48.20;;;19.40;;
70228;SDS011;57617;51.988;5.854;2022-11-15T09:17:57;49.17;;;18.48;;
70228;SDS011;57617;51.988;5.854;2022-11-15T09:20:24;44.38;;;17.52;;
70228;SDS011;57617;51.988;5.854;2022-11-15T09:22:49;42.83;;;18.20;;
70228;SDS011;57617;51.988;5.854;2022-11-15T09:25:14;42.30;;;17.20;;
70228;SDS011;57617;51.988;5.854;2022-11-15T09:27:40;37.70;;;15.50;;
70228;SDS011;57617;51.988;5.854;2022-11-15T09:30:05;31.60;;;14.85;;
70228;SDS011;57617;51.988;5.854;2022-11-15T09:32:31;31.33;;;14.88;;
70228;SDS011;57617;51.988;5.854;2022-11-15T09:34:56;28.27;;;15.18;;
70228;SDS011;57617;51.988;5.854;2022-11-15T09:37:22;27.77;;;14.25;;
70228;SDS011;57617;51.988;5.854;2022-11-15T09:39:47;29.17;;;14.20;;
70228;SDS011;57617;51.988;5.854;2022-11-15T09:50:08;23.95;;;12.93;;
70228;SDS011;57617;51.988;5.854;2022-11-15T09:52:36;20.75;;;11.98;;
70228;SDS011;57617;51.988;5.854;2022-11-15T09:55:07;20.95;;;11.63;;
70228;SDS011;57617;51.988;5.854;2022-11-15T09:57:39;24.95;;;11.07;;
70228;SDS011;57617;51.988;5.854;2022-11-15T10:00:19;21.17;;;11.30;;
70228;SDS011;57617;51.988;5.854;2022-11-15T10:05:27;21.65;;;10.65;;
70228;SDS011;57617;51.988;5.854;2022-11-15T10:08:20;18.77;;;10.30;;
70228;SDS011;57617;51.988;5.854;2022-11-15T10:10:58;18.83;;;10.07;;
70228;SDS011;57617;51.988;5.854;2022-11-15T10:13:27;21.95;;;10.10;;
70228;SDS011;57617;51.988;5.854;2022-11-15T10:16:09;18.98;;;9.18;;
70228;SDS011;57617;51.988;5.854;2022-11-15T10:24:18;18.48;;;9.45;;
70228;SDS011;57617;51.988;5.854;2022-11-15T10:26:48;18.13;;;9.18;;
70228;SDS011;57617;51.988;5.854;2022-11-15T10:29:23;14.38;;;8.75;;
70228;SDS011;57617;51.988;5.854;2022-11-15T10:31:49;16.60;;;9.32;;
70228;SDS011;57617;51.988;5.854;2022-11-15T10:34:19;13.48;;;8.18;;
70228;SDS011;57617;51.988;5.854;2022-11-15T10:36:46;16.08;;;7.90;;
70228;SDS011;57617;51.988;5.854;2022-11-15T10:39:18;14.88;;;7.65;;
70228;SDS011;57617;51.988;5.854;2022-11-15T10:41:44;14.60;;;7.50;;
70228;SDS011;57617;51.988;5.854;2022-11-15T10:49:21;11.57;;;5.32;;
70228;SDS011;57617;51.988;5.854;2022-11-15T10:54:46;7.80;;;4.50;;
70228;SDS011;57617;51.988;5.854;2022-11-15T10:59:46;9.70;;;4.30;;
70228;SDS011;57617;51.988;5.854;2022-11-15T11:05:01;7.50;;;4.40;;
70228;SDS011;57617;51.988;5.854;2022-11-15T11:07:30;9.70;;;3.92;;
70228;SDS011;57617;51.988;5.854;2022-11-15T11:09:57;10.15;;;3.72;;
70228;SDS011;57617;51.988;5.854;2022-11-15T11:12:41;6.28;;;3.38;;
70228;SDS011;57617;51.988;5.854;2022-11-15T11:15:10;5.85;;;3.20;;
70228;SDS011;57617;51.988;5.854;2022-11-15T11:17:48;5.65;;;2.95;;
70228;SDS011;57617;51.988;5.854;2022-11-15T11:20:20;4.75;;;2.97;;
70228;SDS011;57617;51.988;5.854;2022-11-15T11:22:57;6.35;;;2.63;;
70228;SDS011;57617;51.988;5.854;2022-11-15T11:25:50;6.43;;;2.60;;
70228;SDS011;57617;51.988;5.854;2022-11-15T11:31:21;3.95;;;2.30;;
70228;SDS011;57617;51.988;5.854;2022-11-15T11:42:41;4.25;;;2.30;;
70228;SDS011;57617;51.988;5.854;2022-11-15T11:48:13;5.45;;;2.30;;
70228;SDS011;57617;51.988;5.854;2022-11-15T11:50:45;7.35;;;2.05;;
70228;SDS011;57617;51.988;5.854;2022-11-15T11:53:25;7.15;;;2.00;;
70228;SDS011;57617;51.988;5.854;2022-11-15T11:56:02;8.77;;;2.03;;
70228;SDS011;57617;51.988;5.854;2022-11-15T11:58:42;5.15;;;1.70;;
70228;SDS011;57617;51.988;5.854;2022-11-15T12:01:11;4.95;;;1.80;;
70228;SDS011;57617;51.988;5.854;2022-11-15T12:03:46;5.97;;;1.63;;
70228;SDS011;57617;51.988;5.854;2022-11-15T12:06:24;5.35;;;1.90;;
70228;SDS011;57617;51.988;5.854;2022-11-15T12:09:01;6.63;;;2.00;;
70228;SDS011;57617;51.988;5.854;2022-11-15T12:11:51;6.35;;;2.28;;
70228;SDS011;57617;51.988;5.854;2022-11-15T12:14:24;6.75;;;2.33;;
70228;SDS011;57617;51.988;5.854;2022-11-15T12:16:55;7.05;;;2.22;;
70228;SDS011;57617;51.988;5.854;2022-11-15T12:19:20;4.75;;;1.85;;
70228;SDS011;57617;51.988;5.854;2022-11-15T12:24:45;6.60;;;1.75;;
70228;SDS011;57617;51.988;5.854;2022-11-15T12:27:17;5.30;;;2.00;;
70228;SDS011;57617;51.988;5.854;2022-11-15T12:29:56;6.25;;;2.05;;
70228;SDS011;57617;51.988;5.854;2022-11-15T12:35:56;10.40;;;2.90;;
70228;SDS011;57617;51.988;5.854;2022-11-15T12:38:10;7.13;;;3.45;;
70228;SDS011;57617;51.988;5.854;2022-11-15T12:40:38;9.05;;;3.55;;
70228;SDS011;57617;51.988;5.854;2022-11-15T12:43:36;7.65;;;2.50;;
70228;SDS011;57617;51.988;5.854;2022-11-15T12:46:04;8.55;;;3.50;;
70228;SDS011;57617;51.988;5.854;2022-11-15T12:51:01;6.95;;;2.30;;
70228;SDS011;57617;51.988;5.854;2022-11-15T12:53:30;7.00;;;1.55;;
70228;SDS011;57617;51.988;5.854;2022-11-15T12:59:06;6.82;;;2.97;;
70228;SDS011;57617;51.988;5.854;2022-11-15T13:07:02;5.25;;;2.10;;
70228;SDS011;57617;51.988;5.854;2022-11-15T13:11:57;6.28;;;2.30;;
70228;SDS011;57617;51.988;5.854;2022-11-15T13:17:02;6.85;;;2.03;;
70228;SDS011;57617;51.988;5.854;2022-11-15T13:19:47;10.77;;;2.85;;
70228;SDS011;57617;51.988;5.854;2022-11-15T13:22:13;11.00;;;3.20;;
70228;SDS011;57617;51.988;5.854;2022-11-15T13:24:58;11.73;;;4.10;;
70228;SDS011;57617;51.988;5.854;2022-11-15T13:27:25;13.32;;;4.45;;
70228;SDS011;57617;51.988;5.854;2022-11-15T13:29:51;6.32;;;2.13;;
70228;SDS011;57617;51.988;5.854;2022-11-15T13:32:17;9.18;;;3.75;;
70228;SDS011;57617;51.988;5.854;2022-11-15T13:34:44;6.97;;;2.70;;
70228;SDS011;57617;51.988;5.854;2022-11-15T13:37:33;17.65;;;7.22;;
70228;SDS011;57617;51.988;5.854;2022-11-15T13:40:20;7.03;;;2.30;;
70228;SDS011;57617;51.988;5.854;2022-11-15T13:42:52;7.05;;;2.47;;
70228;SDS011;57617;51.988;5.854;2022-11-15T13:45:18;6.70;;;2.33;;
70228;SDS011;57617;51.988;5.854;2022-11-15T13:47:44;7.60;;;2.78;;
70228;SDS011;57617;51.988;5.854;2022-11-15T13:50:10;7.50;;;1.60;;
70228;SDS011;57617;51.988;5.854;2022-11-15T13:52:36;4.63;;;2.20;;
70228;SDS011;57617;51.988;5.854;2022-11-15T13:55:26;2.58;;;1.50;;
70228;SDS011;57617;51.988;5.854;2022-11-15T13:57:52;2.80;;;1.02;;
70228;SDS011;57617;51.988;5.854;2022-11-15T14:03:04;5.68;;;1.40;;
70228;SDS011;57617;51.988;5.854;2022-11-15T14:05:33;7.75;;;1.42;;
70228;SDS011;57617;51.988;5.854;2022-11-15T14:07:59;5.22;;;1.80;;
70228;SDS011;57617;51.988;5.854;2022-11-15T14:10:32;3.10;;;1.40;;
70228;SDS011;57617;51.988;5.854;2022-11-15T14:13:02;5.13;;;1.40;;
70228;SDS011;57617;51.988;5.854;2022-11-15T14:17:58;6.85;;;1.25;;
70228;SDS011;57617;51.988;5.854;2022-11-15T14:22:53;5.88;;;1.40;;
70228;SDS011;57617;51.988;5.854;2022-11-15T14:25:21;3.83;;;1.27;;
70228;SDS011;57617;51.988;5.854;2022-11-15T14:28:07;2.53;;;1.30;;
70228;SDS011;57617;51.988;5.854;2022-11-15T14:30:48;4.03;;;1.33;;
70228;SDS011;57617;51.988;5.854;2022-11-15T14:33:31;3.45;;;1.30;;
70228;SDS011;57617;51.988;5.854;2022-11-15T14:36:15;5.15;;;1.67;;
70228;SDS011;57617;51.988;5.854;2022-11-15T14:38:42;6.20;;;1.98;;
70228;SDS011;57617;51.988;5.854;2022-11-15T14:41:18;8.70;;;1.88;;
70228;SDS011;57617;51.988;5.854;2022-11-15T14:43:48;4.53;;;1.85;;
70228;SDS011;57617;51.988;5.854;2022-11-15T14:46:14;4.90;;;1.90;;
70228;SDS011;57617;51.988;5.854;2022-11-15T14:48:39;5.30;;;1.80;;
70228;SDS011;57617;51.988;5.854;2022-11-15T14:51:09;6.22;;;1.70;;
70228;SDS011;57617;51.988;5.854;2022-11-15T14:53:37;5.80;;;1.60;;
70228;SDS011;57617;51.988;5.854;2022-11-15T14:56:02;6.40;;;1.40;;
70228;SDS011;57617;51.988;5.854;2022-11-15T14:58:28;5.07;;;1.55;;
70228;SDS011;57617;51.988;5.854;2022-11-15T15:00:53;5.63;;;2.33;;
70228;SDS011;57617;51.988;5.854;2022-11-15T15:03:18;3.60;;;1.67;;
70228;SDS011;57617;51.988;5.854;2022-11-15T15:05:44;5.65;;;1.73;;
70228;SDS011;57617;51.988;5.854;2022-11-15T15:08:09;4.00;;;1.45;;
70228;SDS011;57617;51.988;5.854;2022-11-15T15:10:36;4.20;;;1.40;;
70228;SDS011;57617;51.988;5.854;2022-11-15T15:13:04;4.97;;;2.08;;
70228;SDS011;57617;51.988;5.854;2022-11-15T15:15:34;3.70;;;1.33;;
70228;SDS011;57617;51.988;5.854;2022-11-15T15:18:02;3.90;;;1.45;;
70228;SDS011;57617;51.988;5.854;2022-11-15T15:20:29;3.97;;;1.55;;
70228;SDS011;57617;51.988;5.854;2022-11-15T15:22:55;3.10;;;1.30;;
70228;SDS011;57617;51.988;5.854;2022-11-15T15:25:21;4.15;;;1.38;;
70228;SDS011;57617;51.988;5.854;2022-11-15T15:27:52;3.25;;;1.50;;
70228;SDS011;57617;51.988;5.854;2022-11-15T15:30:17;4.10;;;1.55;;
70228;SDS011;57617;51.988;5.854;2022-11-15T15:32:43;5.03;;;1.50;;
70228;SDS011;57617;51.988;5.854;2022-11-15T15:35:11;7.80;;;2.03;;
70228;SDS011;57617;51.988;5.854;2022-11-15T15:37:37;3.58;;;1.40;;
70228;SDS011;57617;51.988;5.854;2022-11-15T15:40:03;3.95;;;1.60;;
70228;SDS011;57617;51.988;5.854;2022-11-15T15:42:28;6.47;;;2.20;;
70228;SDS011;57617;51.988;5.854;2022-11-15T15:44:53;2.67;;;1.38;;
70228;SDS011;57617;51.988;5.854;2022-11-15T15:47:19;6.97;;;2.08;;
70228;SDS011;57617;51.988;5.854;2022-11-15T15:49:46;6.30;;;1.83;;
70228;SDS011;57617;51.988;5.854;2022-11-15T15:52:12;6.25;;;1.70;;
70228;SDS011;57617;51.988;5.854;2022-11-15T15:54:37;4.78;;;1.73;;
70228;SDS011;57617;51.988;5.854;2022-11-15T15:57:04;6.38;;;1.85;;
70228;SDS011;57617;51.988;5.854;2022-11-15T15:59:29;6.13;;;2.00;;
70228;SDS011;57617;51.988;5.854;2022-11-15T16:01:55;5.93;;;2.05;;
70228;SDS011;57617;51.988;5.854;2022-11-15T16:04:20;5.28;;;1.92;;
70228;SDS011;57617;51.988;5.854;2022-11-15T16:06:46;6.20;;;2.20;;
70228;SDS011;57617;51.988;5.854;2022-11-15T16:09:14;5.20;;;1.90;;
70228;SDS011;57617;51.988;5.854;2022-11-15T16:11:44;5.45;;;2.03;;
70228;SDS011;57617;51.988;5.854;2022-11-15T16:14:10;8.48;;;2.72;;
70228;SDS011;57617;51.988;5.854;2022-11-15T16:16:36;5.18;;;1.90;;
70228;SDS011;57617;51.988;5.854;2022-11-15T16:19:02;9.38;;;4.43;;
70228;SDS011;57617;51.988;5.854;2022-11-15T16:21:28;6.32;;;2.58;;
70228;SDS011;57617;51.988;5.854;2022-11-15T16:23:54;6.20;;;2.95;;